sensor_id;sensor_type;location;lat;lon;timestamp;P1;durP1;ratioP1;P2;durP2;ratioP2
13685;SDS011;6915;48.296;8.874;2024-01-07T00:01:45;29.90;;;19.67;;
13685;SDS011;6915;48.296;8.874;2024-01-07T00:04:12;30.77;;;20.40;;
13685;SDS011;6915;48.296;8.874;2024-01-07T00:06:40;33.13;;;21.13;;
13685;SDS011;6915;48.296;8.874;2024-01-07T00:09:07;31.67;;;20.83;;
13685;SDS011;6915;48.296;8.874;2024-01-07T00:11:34;28.47;;;19.53;;
13685;SDS011;6915;48.296;8.874;2024-01-07T00:14:02;31.77;;;19.60;;
13685;SDS011;6915;48.296;8.874;2024-01-07T00:16:29;29.13;;;18.33;;
13685;SDS011;6915;48.296;8.874;2024-01-07T00:18:56;28.47;;;19.33;;
13685;SDS011;6915;48.296;8.874;2024-01-07T00:21:23;31.97;;;19.40;;
13685;SDS011;6915;48.296;8.874;2024-01-07T00:23:50;31.43;;;19.93;;
13685;SDS011;6915;48.296;8.874;2024-01-07T00:26:17;32.03;;;19.97;;
13685;SDS011;6915;48.296;8.874;2024-01-07T00:28:44;30.40;;;19.00;;
13685;SDS011;6915;48.296;8.874;2024-01-07T00:31:12;29.73;;;19.13;;
13685;SDS011;6915;48.296;8.874;2024-01-07T00:33:39;30.20;;;19.67;;
13685;SDS011;6915;48.296;8.874;2024-01-07T00:36:06;26.87;;;18.60;;
13685;SDS011;6915;48.296;8.874;2024-01-07T00:38:33;26.83;;;17.40;;
13685;SDS011;6915;48.296;8.874;2024-01-07T00:41:00;27.47;;;18.30;;
13685;SDS011;6915;48.296;8.874;2024-01-07T00:43:27;28.03;;;18.00;;
13685;SDS011;6915;48.296;8.874;2024-01-07T00:45:54;25.60;;;17.97;;
13685;SDS011;6915;48.296;8.874;2024-01-07T00:48:22;25.47;;;18.23;;
13685;SDS011;6915;48.296;8.874;2024-01-07T00:50:49;26.20;;;17.70;;
13685;SDS011;6915;48.296;8.874;2024-01-07T00:53:16;25.17;;;17.13;;
13685;SDS011;6915;48.296;8.874;2024-01-07T00:55:42;28.80;;;17.33;;
13685;SDS011;6915;48.296;8.874;2024-01-07T00:58:09;25.30;;;16.53;;
13685;SDS011;6915;48.296;8.874;2024-01-07T01:00:36;28.83;;;17.47;;
13685;SDS011;6915;48.296;8.874;2024-01-07T01:03:03;26.10;;;17.50;;
13685;SDS011;6915;48.296;8.874;2024-01-07T01:05:31;28.10;;;17.27;;
13685;SDS011;6915;48.296;8.874;2024-01-07T01:07:58;24.77;;;16.33;;
13685;SDS011;6915;48.296;8.874;2024-01-07T01:10:25;26.03;;;18.23;;
13685;SDS011;6915;48.296;8.874;2024-01-07T01:12:52;29.70;;;19.20;;
13685;SDS011;6915;48.296;8.874;2024-01-07T01:15:19;30.27;;;18.90;;
13685;SDS011;6915;48.296;8.874;2024-01-07T01:17:46;26.70;;;17.80;;
13685;SDS011;6915;48.296;8.874;2024-01-07T01:20:13;27.97;;;18.30;;
13685;SDS011;6915;48.296;8.874;2024-01-07T01:22:41;28.07;;;18.10;;
13685;SDS011;6915;48.296;8.874;2024-01-07T01:25:08;27.90;;;17.77;;
13685;SDS011;6915;48.296;8.874;2024-01-07T01:27:35;28.70;;;18.13;;
13685;SDS011;6915;48.296;8.874;2024-01-07T01:30:02;29.50;;;18.73;;
13685;SDS011;6915;48.296;8.874;2024-01-07T01:32:30;34.43;;;20.67;;
13685;SDS011;6915;48.296;8.874;2024-01-07T01:34:57;30.67;;;19.47;;
13685;SDS011;6915;48.296;8.874;2024-01-07T01:37:23;36.00;;;21.53;;
13685;SDS011;6915;48.296;8.874;2024-01-07T01:39:52;29.83;;;19.80;;
13685;SDS011;6915;48.296;8.874;2024-01-07T01:42:18;31.90;;;19.40;;
13685;SDS011;6915;48.296;8.874;2024-01-07T01:44:46;33.67;;;20.00;;
13685;SDS011;6915;48.296;8.874;2024-01-07T01:47:13;33.87;;;20.13;;
13685;SDS011;6915;48.296;8.874;2024-01-07T01:49:40;31.90;;;19.37;;
13685;SDS011;6915;48.296;8.874;2024-01-07T01:52:07;27.73;;;17.83;;
13685;SDS011;6915;48.296;8.874;2024-01-07T01:54:35;26.97;;;17.87;;
13685;SDS011;6915;48.296;8.874;2024-01-07T01:57:03;26.50;;;18.83;;
13685;SDS011;6915;48.296;8.874;2024-01-07T01:59:31;27.80;;;17.80;;
13685;SDS011;6915;48.296;8.874;2024-01-07T02:01:59;28.30;;;17.80;;
13685;SDS011;6915;48.296;8.874;2024-01-07T02:04:27;27.20;;;17.93;;
13685;SDS011;6915;48.296;8.874;2024-01-07T02:06:54;27.17;;;17.60;;
13685;SDS011;6915;48.296;8.874;2024-01-07T02:09:21;29.30;;;17.90;;
13685;SDS011;6915;48.296;8.874;2024-01-07T02:11:59;31.43;;;18.70;;
13685;SDS011;6915;48.296;8.874;2024-01-07T02:14:28;30.87;;;18.63;;
13685;SDS011;6915;48.296;8.874;2024-01-07T02:16:55;28.50;;;18.17;;
13685;SDS011;6915;48.296;8.874;2024-01-07T02:19:22;27.40;;;17.80;;
13685;SDS011;6915;48.296;8.874;2024-01-07T02:21:50;24.17;;;16.63;;
13685;SDS011;6915;48.296;8.874;2024-01-07T02:24:18;26.27;;;16.97;;
13685;SDS011;6915;48.296;8.874;2024-01-07T02:26:45;26.80;;;17.23;;
13685;SDS011;6915;48.296;8.874;2024-01-07T02:29:12;27.40;;;17.70;;
13685;SDS011;6915;48.296;8.874;2024-01-07T02:31:39;28.97;;;18.03;;
13685;SDS011;6915;48.296;8.874;2024-01-07T02:34:06;28.33;;;18.53;;
13685;SDS011;6915;48.296;8.874;2024-01-07T02:36:34;28.37;;;17.63;;
13685;SDS011;6915;48.296;8.874;2024-01-07T02:39:01;30.40;;;18.60;;
13685;SDS011;6915;48.296;8.874;2024-01-07T02:41:30;29.30;;;18.00;;
13685;SDS011;6915;48.296;8.874;2024-01-07T02:43:57;25.43;;;17.37;;
13685;SDS011;6915;48.296;8.874;2024-01-07T02:46:24;27.97;;;18.10;;
13685;SDS011;6915;48.296;8.874;2024-01-07T02:48:51;30.33;;;17.73;;
13685;SDS011;6915;48.296;8.874;2024-01-07T02:51:17;23.20;;;15.37;;
13685;SDS011;6915;48.296;8.874;2024-01-07T02:53:44;21.93;;;14.93;;
13685;SDS011;6915;48.296;8.874;2024-01-07T02:56:11;21.70;;;13.83;;
13685;SDS011;6915;48.296;8.874;2024-01-07T02:58:39;20.70;;;13.53;;
13685;SDS011;6915;48.296;8.874;2024-01-07T03:01:08;20.30;;;14.13;;
13685;SDS011;6915;48.296;8.874;2024-01-07T03:03:35;20.40;;;13.57;;
13685;SDS011;6915;48.296;8.874;2024-01-07T03:06:02;22.37;;;13.63;;
13685;SDS011;6915;48.296;8.874;2024-01-07T03:08:29;22.00;;;15.33;;
13685;SDS011;6915;48.296;8.874;2024-01-07T03:10:56;22.77;;;15.00;;
13685;SDS011;6915;48.296;8.874;2024-01-07T03:13:23;24.27;;;14.80;;
13685;SDS011;6915;48.296;8.874;2024-01-07T03:15:51;23.03;;;14.60;;
13685;SDS011;6915;48.296;8.874;2024-01-07T03:18:18;20.97;;;14.30;;
13685;SDS011;6915;48.296;8.874;2024-01-07T03:20:45;19.43;;;13.57;;
13685;SDS011;6915;48.296;8.874;2024-01-07T03:23:12;20.40;;;13.90;;
13685;SDS011;6915;48.296;8.874;2024-01-07T03:25:39;14.43;;;10.70;;
13685;SDS011;6915;48.296;8.874;2024-01-07T03:28:05;14.53;;;10.50;;
13685;SDS011;6915;48.296;8.874;2024-01-07T03:30:33;11.67;;;9.20;;
13685;SDS011;6915;48.296;8.874;2024-01-07T03:33:01;14.70;;;9.73;;
13685;SDS011;6915;48.296;8.874;2024-01-07T03:35:28;14.10;;;10.20;;
13685;SDS011;6915;48.296;8.874;2024-01-07T03:37:55;14.03;;;9.67;;
13685;SDS011;6915;48.296;8.874;2024-01-07T03:40:22;15.37;;;9.93;;
13685;SDS011;6915;48.296;8.874;2024-01-07T03:42:49;16.17;;;10.90;;
13685;SDS011;6915;48.296;8.874;2024-01-07T03:45:16;15.90;;;10.97;;
13685;SDS011;6915;48.296;8.874;2024-01-07T03:47:43;15.10;;;10.33;;
13685;SDS011;6915;48.296;8.874;2024-01-07T03:50:11;15.37;;;10.50;;
13685;SDS011;6915;48.296;8.874;2024-01-07T03:52:38;16.43;;;10.13;;
13685;SDS011;6915;48.296;8.874;2024-01-07T03:55:05;14.13;;;9.57;;
13685;SDS011;6915;48.296;8.874;2024-01-07T03:57:33;13.33;;;8.83;;
13685;SDS011;6915;48.296;8.874;2024-01-07T04:00:00;13.43;;;9.07;;
13685;SDS011;6915;48.296;8.874;2024-01-07T04:02:26;13.70;;;8.47;;
13685;SDS011;6915;48.296;8.874;2024-01-07T04:04:53;12.23;;;8.73;;
13685;SDS011;6915;48.296;8.874;2024-01-07T04:07:21;11.90;;;8.20;;
13685;SDS011;6915;48.296;8.874;2024-01-07T04:09:48;12.13;;;8.73;;
13685;SDS011;6915;48.296;8.874;2024-01-07T04:12:15;12.37;;;8.17;;
13685;SDS011;6915;48.296;8.874;2024-01-07T04:14:42;11.53;;;8.47;;
13685;SDS011;6915;48.296;8.874;2024-01-07T04:17:09;9.93;;;7.27;;
13685;SDS011;6915;48.296;8.874;2024-01-07T04:19:36;11.40;;;8.03;;
13685;SDS011;6915;48.296;8.874;2024-01-07T04:22:04;12.00;;;8.43;;
13685;SDS011;6915;48.296;8.874;2024-01-07T04:24:32;12.27;;;8.70;;
13685;SDS011;6915;48.296;8.874;2024-01-07T04:26:59;12.53;;;8.70;;
13685;SDS011;6915;48.296;8.874;2024-01-07T04:29:25;14.13;;;9.37;;
13685;SDS011;6915;48.296;8.874;2024-01-07T04:31:52;13.67;;;9.47;;
13685;SDS011;6915;48.296;8.874;2024-01-07T04:34:19;12.57;;;9.10;;
13685;SDS011;6915;48.296;8.874;2024-01-07T04:36:46;13.47;;;8.90;;
13685;SDS011;6915;48.296;8.874;2024-01-07T04:39:13;13.97;;;9.70;;
13685;SDS011;6915;48.296;8.874;2024-01-07T04:41:41;12.37;;;8.27;;
13685;SDS011;6915;48.296;8.874;2024-01-07T04:44:08;12.90;;;9.20;;
13685;SDS011;6915;48.296;8.874;2024-01-07T04:46:37;14.17;;;9.30;;
13685;SDS011;6915;48.296;8.874;2024-01-07T04:49:05;17.17;;;11.33;;
13685;SDS011;6915;48.296;8.874;2024-01-07T04:51:32;15.67;;;10.10;;
13685;SDS011;6915;48.296;8.874;2024-01-07T04:53:59;15.80;;;10.60;;
13685;SDS011;6915;48.296;8.874;2024-01-07T04:56:26;15.83;;;10.43;;
13685;SDS011;6915;48.296;8.874;2024-01-07T04:58:54;16.97;;;11.17;;
13685;SDS011;6915;48.296;8.874;2024-01-07T05:01:21;16.97;;;11.20;;
13685;SDS011;6915;48.296;8.874;2024-01-07T05:03:48;15.60;;;11.07;;
13685;SDS011;6915;48.296;8.874;2024-01-07T05:06:15;16.37;;;11.33;;
13685;SDS011;6915;48.296;8.874;2024-01-07T05:08:42;17.07;;;11.23;;
13685;SDS011;6915;48.296;8.874;2024-01-07T05:11:09;17.93;;;11.60;;
13685;SDS011;6915;48.296;8.874;2024-01-07T05:13:36;17.80;;;11.87;;
13685;SDS011;6915;48.296;8.874;2024-01-07T05:16:05;17.20;;;11.37;;
13685;SDS011;6915;48.296;8.874;2024-01-07T05:18:32;17.13;;;11.20;;
13685;SDS011;6915;48.296;8.874;2024-01-07T05:20:59;16.07;;;11.03;;
13685;SDS011;6915;48.296;8.874;2024-01-07T05:23:26;13.80;;;9.70;;
13685;SDS011;6915;48.296;8.874;2024-01-07T05:25:52;13.40;;;9.73;;
13685;SDS011;6915;48.296;8.874;2024-01-07T05:28:19;13.57;;;8.67;;
13685;SDS011;6915;48.296;8.874;2024-01-07T05:30:46;13.00;;;9.77;;
13685;SDS011;6915;48.296;8.874;2024-01-07T05:33:14;13.07;;;9.23;;
13685;SDS011;6915;48.296;8.874;2024-01-07T05:35:41;14.93;;;10.30;;
13685;SDS011;6915;48.296;8.874;2024-01-07T05:38:08;15.77;;;11.27;;
13685;SDS011;6915;48.296;8.874;2024-01-07T05:40:34;15.07;;;11.30;;
13685;SDS011;6915;48.296;8.874;2024-01-07T05:43:01;19.70;;;12.60;;
13685;SDS011;6915;48.296;8.874;2024-01-07T05:45:28;17.20;;;12.37;;
13685;SDS011;6915;48.296;8.874;2024-01-07T05:47:55;18.53;;;13.30;;
13685;SDS011;6915;48.296;8.874;2024-01-07T05:50:23;17.33;;;12.37;;
13685;SDS011;6915;48.296;8.874;2024-01-07T05:52:50;19.27;;;13.20;;
13685;SDS011;6915;48.296;8.874;2024-01-07T05:55:17;19.20;;;13.47;;
13685;SDS011;6915;48.296;8.874;2024-01-07T05:57:44;20.03;;;12.93;;
13685;SDS011;6915;48.296;8.874;2024-01-07T06:00:11;21.43;;;14.00;;
13685;SDS011;6915;48.296;8.874;2024-01-07T06:02:39;19.47;;;12.80;;
13685;SDS011;6915;48.296;8.874;2024-01-07T06:05:06;19.13;;;13.33;;
13685;SDS011;6915;48.296;8.874;2024-01-07T06:07:34;18.57;;;13.27;;
13685;SDS011;6915;48.296;8.874;2024-01-07T06:10:01;21.73;;;13.70;;
13685;SDS011;6915;48.296;8.874;2024-01-07T06:12:28;17.30;;;14.03;;
13685;SDS011;6915;48.296;8.874;2024-01-07T06:14:55;18.07;;;13.97;;
13685;SDS011;6915;48.296;8.874;2024-01-07T06:17:22;22.13;;;15.70;;
13685;SDS011;6915;48.296;8.874;2024-01-07T06:19:49;20.23;;;14.90;;
13685;SDS011;6915;48.296;8.874;2024-01-07T06:22:16;22.77;;;16.17;;
13685;SDS011;6915;48.296;8.874;2024-01-07T06:24:44;24.17;;;16.77;;
13685;SDS011;6915;48.296;8.874;2024-01-07T06:27:11;25.47;;;17.47;;
13685;SDS011;6915;48.296;8.874;2024-01-07T06:29:39;20.97;;;15.60;;
13685;SDS011;6915;48.296;8.874;2024-01-07T06:32:06;21.73;;;17.67;;
13685;SDS011;6915;48.296;8.874;2024-01-07T06:34:34;25.53;;;16.80;;
13685;SDS011;6915;48.296;8.874;2024-01-07T06:37:01;22.70;;;16.10;;
13685;SDS011;6915;48.296;8.874;2024-01-07T06:39:29;23.63;;;17.13;;
13685;SDS011;6915;48.296;8.874;2024-01-07T06:41:58;21.70;;;16.37;;
13685;SDS011;6915;48.296;8.874;2024-01-07T06:44:25;22.50;;;17.77;;
13685;SDS011;6915;48.296;8.874;2024-01-07T06:46:52;22.20;;;16.07;;
13685;SDS011;6915;48.296;8.874;2024-01-07T06:49:18;25.03;;;17.50;;
13685;SDS011;6915;48.296;8.874;2024-01-07T06:51:45;22.43;;;17.23;;
13685;SDS011;6915;48.296;8.874;2024-01-07T06:54:12;19.83;;;15.70;;
13685;SDS011;6915;48.296;8.874;2024-01-07T06:56:39;22.97;;;16.43;;
13685;SDS011;6915;48.296;8.874;2024-01-07T06:59:07;19.53;;;16.13;;
13685;SDS011;6915;48.296;8.874;2024-01-07T07:01:35;18.90;;;15.00;;
13685;SDS011;6915;48.296;8.874;2024-01-07T07:04:03;17.20;;;14.03;;
13685;SDS011;6915;48.296;8.874;2024-01-07T07:06:30;19.87;;;15.73;;
13685;SDS011;6915;48.296;8.874;2024-01-07T07:08:57;15.17;;;13.57;;
13685;SDS011;6915;48.296;8.874;2024-01-07T07:11:24;16.10;;;14.40;;
13685;SDS011;6915;48.296;8.874;2024-01-07T07:13:51;17.07;;;13.93;;
13685;SDS011;6915;48.296;8.874;2024-01-07T07:16:19;20.50;;;15.07;;
13685;SDS011;6915;48.296;8.874;2024-01-07T07:18:46;18.90;;;15.30;;
13685;SDS011;6915;48.296;8.874;2024-01-07T07:21:13;18.57;;;15.67;;
13685;SDS011;6915;48.296;8.874;2024-01-07T07:23:40;20.67;;;16.87;;
13685;SDS011;6915;48.296;8.874;2024-01-07T07:26:07;19.33;;;15.73;;
13685;SDS011;6915;48.296;8.874;2024-01-07T07:28:33;20.97;;;17.27;;
13685;SDS011;6915;48.296;8.874;2024-01-07T07:31:00;18.77;;;16.30;;
13685;SDS011;6915;48.296;8.874;2024-01-07T07:33:28;21.10;;;18.90;;
13685;SDS011;6915;48.296;8.874;2024-01-07T07:35:55;20.23;;;17.63;;
13685;SDS011;6915;48.296;8.874;2024-01-07T07:38:22;23.47;;;18.07;;
13685;SDS011;6915;48.296;8.874;2024-01-07T07:40:49;21.97;;;18.70;;
13685;SDS011;6915;48.296;8.874;2024-01-07T07:43:18;26.43;;;18.87;;
13685;SDS011;6915;48.296;8.874;2024-01-07T07:45:45;22.57;;;19.10;;
13685;SDS011;6915;48.296;8.874;2024-01-07T07:48:12;23.90;;;19.53;;
13685;SDS011;6915;48.296;8.874;2024-01-07T07:50:40;23.07;;;18.37;;
13685;SDS011;6915;48.296;8.874;2024-01-07T07:53:07;23.43;;;19.37;;
13685;SDS011;6915;48.296;8.874;2024-01-07T07:55:34;23.50;;;18.30;;
13685;SDS011;6915;48.296;8.874;2024-01-07T07:58:01;21.90;;;16.63;;
13685;SDS011;6915;48.296;8.874;2024-01-07T08:00:28;19.03;;;14.53;;
13685;SDS011;6915;48.296;8.874;2024-01-07T08:02:55;19.50;;;14.90;;
13685;SDS011;6915;48.296;8.874;2024-01-07T08:05:21;20.23;;;15.57;;
13685;SDS011;6915;48.296;8.874;2024-01-07T08:07:50;19.70;;;16.30;;
13685;SDS011;6915;48.296;8.874;2024-01-07T08:10:17;17.17;;;14.70;;
13685;SDS011;6915;48.296;8.874;2024-01-07T08:12:43;16.67;;;13.97;;
13685;SDS011;6915;48.296;8.874;2024-01-07T08:15:10;18.23;;;14.93;;
13685;SDS011;6915;48.296;8.874;2024-01-07T08:17:38;18.63;;;15.17;;
13685;SDS011;6915;48.296;8.874;2024-01-07T08:20:05;19.67;;;14.90;;
13685;SDS011;6915;48.296;8.874;2024-01-07T08:22:33;23.33;;;17.57;;
13685;SDS011;6915;48.296;8.874;2024-01-07T08:25:02;21.03;;;17.37;;
13685;SDS011;6915;48.296;8.874;2024-01-07T08:27:29;24.83;;;19.40;;
13685;SDS011;6915;48.296;8.874;2024-01-07T08:29:57;27.23;;;20.30;;
13685;SDS011;6915;48.296;8.874;2024-01-07T08:32:24;27.30;;;19.90;;
13685;SDS011;6915;48.296;8.874;2024-01-07T08:34:51;27.33;;;21.40;;
13685;SDS011;6915;48.296;8.874;2024-01-07T08:37:18;26.47;;;20.13;;
13685;SDS011;6915;48.296;8.874;2024-01-07T08:39:45;26.73;;;21.10;;
13685;SDS011;6915;48.296;8.874;2024-01-07T08:42:13;23.93;;;19.97;;
13685;SDS011;6915;48.296;8.874;2024-01-07T08:44:40;26.77;;;20.47;;
13685;SDS011;6915;48.296;8.874;2024-01-07T08:47:08;23.80;;;20.00;;
13685;SDS011;6915;48.296;8.874;2024-01-07T08:49:35;21.40;;;19.20;;
13685;SDS011;6915;48.296;8.874;2024-01-07T08:52:03;25.83;;;20.77;;
13685;SDS011;6915;48.296;8.874;2024-01-07T08:54:31;27.17;;;21.43;;
13685;SDS011;6915;48.296;8.874;2024-01-07T08:56:58;25.07;;;19.93;;
13685;SDS011;6915;48.296;8.874;2024-01-07T08:59:26;26.30;;;22.23;;
13685;SDS011;6915;48.296;8.874;2024-01-07T09:01:53;25.07;;;19.77;;
13685;SDS011;6915;48.296;8.874;2024-01-07T09:04:20;26.47;;;20.57;;
13685;SDS011;6915;48.296;8.874;2024-01-07T09:06:47;25.47;;;20.90;;
13685;SDS011;6915;48.296;8.874;2024-01-07T09:09:14;25.07;;;20.60;;
13685;SDS011;6915;48.296;8.874;2024-01-07T09:11:41;28.87;;;21.13;;
13685;SDS011;6915;48.296;8.874;2024-01-07T09:14:07;24.10;;;19.70;;
13685;SDS011;6915;48.296;8.874;2024-01-07T09:16:36;23.23;;;19.53;;
13685;SDS011;6915;48.296;8.874;2024-01-07T09:19:02;22.70;;;18.43;;
13685;SDS011;6915;48.296;8.874;2024-01-07T09:21:29;22.93;;;18.03;;
13685;SDS011;6915;48.296;8.874;2024-01-07T09:23:56;21.57;;;17.70;;
13685;SDS011;6915;48.296;8.874;2024-01-07T09:26:24;21.50;;;17.07;;
13685;SDS011;6915;48.296;8.874;2024-01-07T09:28:51;20.60;;;17.27;;
13685;SDS011;6915;48.296;8.874;2024-01-07T09:31:18;22.10;;;18.80;;
13685;SDS011;6915;48.296;8.874;2024-01-07T09:33:46;20.27;;;16.17;;
13685;SDS011;6915;48.296;8.874;2024-01-07T09:36:13;22.07;;;17.93;;
13685;SDS011;6915;48.296;8.874;2024-01-07T09:38:41;22.77;;;18.90;;
13685;SDS011;6915;48.296;8.874;2024-01-07T09:41:08;23.00;;;17.33;;
13685;SDS011;6915;48.296;8.874;2024-01-07T09:43:35;21.87;;;17.73;;
13685;SDS011;6915;48.296;8.874;2024-01-07T09:46:02;32.20;;;22.77;;
13685;SDS011;6915;48.296;8.874;2024-01-07T09:48:29;24.50;;;20.63;;
13685;SDS011;6915;48.296;8.874;2024-01-07T09:50:58;23.20;;;17.93;;
13685;SDS011;6915;48.296;8.874;2024-01-07T09:53:31;24.13;;;19.40;;
13685;SDS011;6915;48.296;8.874;2024-01-07T09:56:01;21.23;;;17.37;;
13685;SDS011;6915;48.296;8.874;2024-01-07T09:58:37;23.47;;;18.37;;
13685;SDS011;6915;48.296;8.874;2024-01-07T10:01:03;24.93;;;17.83;;
13685;SDS011;6915;48.296;8.874;2024-01-07T10:03:31;21.93;;;17.60;;
13685;SDS011;6915;48.296;8.874;2024-01-07T10:05:59;18.23;;;15.57;;
13685;SDS011;6915;48.296;8.874;2024-01-07T10:08:27;19.87;;;15.83;;
13685;SDS011;6915;48.296;8.874;2024-01-07T10:10:55;19.07;;;14.70;;
13685;SDS011;6915;48.296;8.874;2024-01-07T10:13:22;23.27;;;16.67;;
13685;SDS011;6915;48.296;8.874;2024-01-07T10:15:49;23.83;;;17.97;;
13685;SDS011;6915;48.296;8.874;2024-01-07T10:18:16;21.43;;;17.97;;
13685;SDS011;6915;48.296;8.874;2024-01-07T10:20:44;18.17;;;15.80;;
13685;SDS011;6915;48.296;8.874;2024-01-07T10:23:13;18.33;;;15.47;;
13685;SDS011;6915;48.296;8.874;2024-01-07T10:25:45;17.50;;;15.00;;
13685;SDS011;6915;48.296;8.874;2024-01-07T10:28:12;16.43;;;13.90;;
13685;SDS011;6915;48.296;8.874;2024-01-07T10:30:39;16.83;;;13.87;;
13685;SDS011;6915;48.296;8.874;2024-01-07T10:33:06;19.83;;;14.40;;
13685;SDS011;6915;48.296;8.874;2024-01-07T10:35:34;16.67;;;13.97;;
13685;SDS011;6915;48.296;8.874;2024-01-07T10:38:01;16.87;;;14.53;;
13685;SDS011;6915;48.296;8.874;2024-01-07T10:40:31;16.40;;;13.77;;
13685;SDS011;6915;48.296;8.874;2024-01-07T10:42:59;16.87;;;13.60;;
13685;SDS011;6915;48.296;8.874;2024-01-07T10:45:26;17.77;;;14.70;;
13685;SDS011;6915;48.296;8.874;2024-01-07T10:47:54;15.33;;;13.00;;
13685;SDS011;6915;48.296;8.874;2024-01-07T10:50:24;17.37;;;13.40;;
13685;SDS011;6915;48.296;8.874;2024-01-07T10:52:57;19.87;;;15.47;;
13685;SDS011;6915;48.296;8.874;2024-01-07T10:55:32;21.27;;;15.93;;
13685;SDS011;6915;48.296;8.874;2024-01-07T10:58:01;17.00;;;13.23;;
13685;SDS011;6915;48.296;8.874;2024-01-07T11:00:30;17.17;;;13.80;;
13685;SDS011;6915;48.296;8.874;2024-01-07T11:03:02;18.47;;;13.73;;
13685;SDS011;6915;48.296;8.874;2024-01-07T11:05:37;16.77;;;14.57;;
13685;SDS011;6915;48.296;8.874;2024-01-07T11:08:11;19.07;;;15.57;;
13685;SDS011;6915;48.296;8.874;2024-01-07T11:10:48;23.13;;;17.40;;
13685;SDS011;6915;48.296;8.874;2024-01-07T11:13:31;17.37;;;13.53;;
13685;SDS011;6915;48.296;8.874;2024-01-07T11:15:59;18.43;;;14.00;;
13685;SDS011;6915;48.296;8.874;2024-01-07T11:18:26;17.97;;;13.80;;
13685;SDS011;6915;48.296;8.874;2024-01-07T11:20:58;17.40;;;13.00;;
13685;SDS011;6915;48.296;8.874;2024-01-07T11:23:26;17.53;;;12.70;;
13685;SDS011;6915;48.296;8.874;2024-01-07T11:25:57;18.73;;;12.43;;
13685;SDS011;6915;48.296;8.874;2024-01-07T11:31:13;19.10;;;13.43;;
13685;SDS011;6915;48.296;8.874;2024-01-07T11:33:41;18.37;;;14.37;;
13685;SDS011;6915;48.296;8.874;2024-01-07T11:36:10;18.73;;;13.20;;
13685;SDS011;6915;48.296;8.874;2024-01-07T11:38:37;22.80;;;12.07;;
13685;SDS011;6915;48.296;8.874;2024-01-07T11:41:08;16.63;;;13.33;;
13685;SDS011;6915;48.296;8.874;2024-01-07T11:43:37;17.20;;;12.63;;
13685;SDS011;6915;48.296;8.874;2024-01-07T11:46:04;15.73;;;12.30;;
13685;SDS011;6915;48.296;8.874;2024-01-07T11:48:31;15.87;;;12.20;;
13685;SDS011;6915;48.296;8.874;2024-01-07T11:50:58;17.70;;;13.20;;
13685;SDS011;6915;48.296;8.874;2024-01-07T11:53:25;17.17;;;12.60;;
13685;SDS011;6915;48.296;8.874;2024-01-07T11:55:52;15.63;;;12.93;;
13685;SDS011;6915;48.296;8.874;2024-01-07T11:58:20;16.57;;;13.20;;
13685;SDS011;6915;48.296;8.874;2024-01-07T12:00:47;16.77;;;13.23;;
13685;SDS011;6915;48.296;8.874;2024-01-07T12:03:15;18.97;;;12.70;;
13685;SDS011;6915;48.296;8.874;2024-01-07T12:05:42;20.97;;;14.67;;
13685;SDS011;6915;48.296;8.874;2024-01-07T12:08:08;16.17;;;12.23;;
13685;SDS011;6915;48.296;8.874;2024-01-07T12:10:37;16.87;;;12.67;;
13685;SDS011;6915;48.296;8.874;2024-01-07T12:13:04;15.27;;;12.53;;
13685;SDS011;6915;48.296;8.874;2024-01-07T12:15:32;16.30;;;12.97;;
13685;SDS011;6915;48.296;8.874;2024-01-07T12:18:01;14.27;;;11.73;;
13685;SDS011;6915;48.296;8.874;2024-01-07T12:20:28;12.93;;;11.37;;
13685;SDS011;6915;48.296;8.874;2024-01-07T12:22:55;15.13;;;12.40;;
13685;SDS011;6915;48.296;8.874;2024-01-07T12:25:24;13.33;;;11.93;;
13685;SDS011;6915;48.296;8.874;2024-01-07T12:27:51;14.87;;;12.00;;
13685;SDS011;6915;48.296;8.874;2024-01-07T12:30:23;12.13;;;10.93;;
13685;SDS011;6915;48.296;8.874;2024-01-07T12:32:52;12.70;;;11.13;;
13685;SDS011;6915;48.296;8.874;2024-01-07T12:35:20;12.73;;;10.77;;
13685;SDS011;6915;48.296;8.874;2024-01-07T12:37:48;15.13;;;11.33;;
13685;SDS011;6915;48.296;8.874;2024-01-07T12:40:15;13.83;;;11.33;;
13685;SDS011;6915;48.296;8.874;2024-01-07T12:42:42;15.57;;;12.83;;
13685;SDS011;6915;48.296;8.874;2024-01-07T12:45:11;16.53;;;12.60;;
13685;SDS011;6915;48.296;8.874;2024-01-07T12:47:40;13.30;;;11.50;;
13685;SDS011;6915;48.296;8.874;2024-01-07T12:50:08;16.33;;;12.07;;
13685;SDS011;6915;48.296;8.874;2024-01-07T12:52:36;16.00;;;12.97;;
13685;SDS011;6915;48.296;8.874;2024-01-07T12:55:04;15.50;;;12.70;;
13685;SDS011;6915;48.296;8.874;2024-01-07T12:57:32;16.70;;;13.53;;
13685;SDS011;6915;48.296;8.874;2024-01-07T12:59:59;16.77;;;13.43;;
13685;SDS011;6915;48.296;8.874;2024-01-07T13:02:26;17.20;;;12.37;;
13685;SDS011;6915;48.296;8.874;2024-01-07T13:04:53;19.10;;;14.20;;
13685;SDS011;6915;48.296;8.874;2024-01-07T13:07:21;16.93;;;14.30;;
13685;SDS011;6915;48.296;8.874;2024-01-07T13:09:49;17.17;;;13.33;;
13685;SDS011;6915;48.296;8.874;2024-01-07T13:12:16;16.23;;;12.43;;
13685;SDS011;6915;48.296;8.874;2024-01-07T13:14:43;15.60;;;12.20;;
13685;SDS011;6915;48.296;8.874;2024-01-07T13:17:12;14.83;;;12.83;;
13685;SDS011;6915;48.296;8.874;2024-01-07T13:19:39;15.00;;;10.77;;
13685;SDS011;6915;48.296;8.874;2024-01-07T13:22:06;13.73;;;9.63;;
13685;SDS011;6915;48.296;8.874;2024-01-07T13:24:35;14.50;;;11.67;;
13685;SDS011;6915;48.296;8.874;2024-01-07T13:27:03;12.53;;;9.70;;
13685;SDS011;6915;48.296;8.874;2024-01-07T13:29:30;14.90;;;11.50;;
13685;SDS011;6915;48.296;8.874;2024-01-07T13:31:57;15.40;;;10.87;;
13685;SDS011;6915;48.296;8.874;2024-01-07T13:34:24;16.37;;;12.67;;
13685;SDS011;6915;48.296;8.874;2024-01-07T13:36:51;12.80;;;10.53;;
13685;SDS011;6915;48.296;8.874;2024-01-07T13:39:18;12.37;;;10.50;;
13685;SDS011;6915;48.296;8.874;2024-01-07T13:41:47;12.23;;;10.80;;
13685;SDS011;6915;48.296;8.874;2024-01-07T13:44:14;13.20;;;10.40;;
13685;SDS011;6915;48.296;8.874;2024-01-07T13:46:43;12.83;;;10.07;;
13685;SDS011;6915;48.296;8.874;2024-01-07T13:49:11;12.33;;;10.57;;
13685;SDS011;6915;48.296;8.874;2024-01-07T13:51:39;12.27;;;10.33;;
13685;SDS011;6915;48.296;8.874;2024-01-07T13:54:06;13.30;;;10.73;;
13685;SDS011;6915;48.296;8.874;2024-01-07T13:56:34;12.07;;;10.83;;
13685;SDS011;6915;48.296;8.874;2024-01-07T13:59:04;12.23;;;10.77;;
13685;SDS011;6915;48.296;8.874;2024-01-07T14:01:31;13.87;;;10.63;;
13685;SDS011;6915;48.296;8.874;2024-01-07T14:03:58;16.03;;;12.70;;
13685;SDS011;6915;48.296;8.874;2024-01-07T14:06:24;12.63;;;10.63;;
13685;SDS011;6915;48.296;8.874;2024-01-07T14:08:51;15.67;;;11.33;;
13685;SDS011;6915;48.296;8.874;2024-01-07T14:11:19;14.37;;;11.97;;
13685;SDS011;6915;48.296;8.874;2024-01-07T14:13:46;14.07;;;12.30;;
13685;SDS011;6915;48.296;8.874;2024-01-07T14:16:14;14.23;;;11.87;;
13685;SDS011;6915;48.296;8.874;2024-01-07T14:18:41;15.67;;;12.53;;
13685;SDS011;6915;48.296;8.874;2024-01-07T14:21:08;15.10;;;11.83;;
13685;SDS011;6915;48.296;8.874;2024-01-07T14:23:35;17.13;;;13.20;;
13685;SDS011;6915;48.296;8.874;2024-01-07T14:26:02;17.43;;;12.93;;
13685;SDS011;6915;48.296;8.874;2024-01-07T14:28:30;16.70;;;13.87;;
13685;SDS011;6915;48.296;8.874;2024-01-07T14:30:56;15.70;;;12.63;;
13685;SDS011;6915;48.296;8.874;2024-01-07T14:33:25;14.80;;;12.57;;
13685;SDS011;6915;48.296;8.874;2024-01-07T14:35:52;15.13;;;12.50;;
13685;SDS011;6915;48.296;8.874;2024-01-07T14:38:19;16.47;;;14.17;;
13685;SDS011;6915;48.296;8.874;2024-01-07T14:40:47;16.47;;;14.00;;